sensor_id;sensor_type;location;lat;lon;timestamp;P1;durP1;ratioP1;P2;durP2;ratioP2
20731;SDS011;10527;52.124;5.196;2024-02-15T00:00:21;7.22;;;4.68;;
20731;SDS011;10527;52.124;5.196;2024-02-15T00:02:49;7.47;;;3.80;;
20731;SDS011;10527;52.124;5.196;2024-02-15T00:05:17;6.38;;;3.70;;
20731;SDS011;10527;52.124;5.196;2024-02-15T00:07:44;8.00;;;3.50;;
20731;SDS011;10527;52.124;5.196;2024-02-15T00:10:15;8.05;;;3.58;;
20731;SDS011;10527;52.124;5.196;2024-02-15T00:12:42;7.53;;;4.07;;
20731;SDS011;10527;52.124;5.196;2024-02-15T00:15:10;5.18;;;3.70;;
20731;SDS011;10527;52.124;5.196;2024-02-15T00:17:39;12.02;;;4.95;;
20731;SDS011;10527;52.124;5.196;2024-02-15T00:20:07;6.00;;;3.35;;
20731;SDS011;10527;52.124;5.196;2024-02-15T00:22:36;9.68;;;3.80;;
20731;SDS011;10527;52.124;5.196;2024-02-15T00:25:03;6.63;;;2.85;;
20731;SDS011;10527;52.124;5.196;2024-02-15T00:27:32;8.13;;;3.60;;
20731;SDS011;10527;52.124;5.196;2024-02-15T00:30:01;9.23;;;4.53;;
20731;SDS011;10527;52.124;5.196;2024-02-15T00:32:31;10.18;;;3.92;;
20731;SDS011;10527;52.124;5.196;2024-02-15T00:35:00;6.05;;;3.28;;
20731;SDS011;10527;52.124;5.196;2024-02-15T00:37:27;7.68;;;3.30;;
20731;SDS011;10527;52.124;5.196;2024-02-15T00:39:55;6.95;;;3.38;;
20731;SDS011;10527;52.124;5.196;2024-02-15T00:42:22;6.95;;;3.30;;
20731;SDS011;10527;52.124;5.196;2024-02-15T00:44:50;4.90;;;2.92;;
20731;SDS011;10527;52.124;5.196;2024-02-15T00:47:17;5.45;;;3.10;;
20731;SDS011;10527;52.124;5.196;2024-02-15T00:49:46;5.43;;;2.97;;
20731;SDS011;10527;52.124;5.196;2024-02-15T00:52:14;8.23;;;3.45;;
20731;SDS011;10527;52.124;5.196;2024-02-15T00:54:41;6.40;;;3.13;;
20731;SDS011;10527;52.124;5.196;2024-02-15T00:57:08;7.15;;;3.17;;
20731;SDS011;10527;52.124;5.196;2024-02-15T00:59:36;8.07;;;3.65;;
20731;SDS011;10527;52.124;5.196;2024-02-15T01:02:04;9.05;;;3.03;;
20731;SDS011;10527;52.124;5.196;2024-02-15T01:04:33;9.88;;;3.40;;
20731;SDS011;10527;52.124;5.196;2024-02-15T01:07:01;9.77;;;4.45;;
20731;SDS011;10527;52.124;5.196;2024-02-15T01:09:29;5.45;;;3.58;;
20731;SDS011;10527;52.124;5.196;2024-02-15T01:11:56;4.03;;;3.22;;
20731;SDS011;10527;52.124;5.196;2024-02-15T01:14:25;6.22;;;4.00;;
20731;SDS011;10527;52.124;5.196;2024-02-15T01:16:56;9.40;;;3.53;;
20731;SDS011;10527;52.124;5.196;2024-02-15T01:19:24;8.80;;;3.92;;
20731;SDS011;10527;52.124;5.196;2024-02-15T01:21:51;8.85;;;4.40;;
20731;SDS011;10527;52.124;5.196;2024-02-15T01:24:20;5.45;;;4.30;;
20731;SDS011;10527;52.124;5.196;2024-02-15T01:26:48;6.47;;;3.80;;
20731;SDS011;10527;52.124;5.196;2024-02-15T01:29:16;9.10;;;4.63;;
20731;SDS011;10527;52.124;5.196;2024-02-15T01:31:43;7.47;;;4.90;;
20731;SDS011;10527;52.124;5.196;2024-02-15T01:34:11;5.68;;;4.22;;
20731;SDS011;10527;52.124;5.196;2024-02-15T01:36:38;11.35;;;5.28;;
20731;SDS011;10527;52.124;5.196;2024-02-15T01:39:06;7.80;;;5.20;;
20731;SDS011;10527;52.124;5.196;2024-02-15T01:41:34;8.60;;;5.28;;
20731;SDS011;10527;52.124;5.196;2024-02-15T01:44:02;6.78;;;4.97;;
20731;SDS011;10527;52.124;5.196;2024-02-15T01:46:29;9.05;;;5.75;;
20731;SDS011;10527;52.124;5.196;2024-02-15T01:48:57;9.05;;;6.90;;
20731;SDS011;10527;52.124;5.196;2024-02-15T01:51:25;9.13;;;6.00;;
20731;SDS011;10527;52.124;5.196;2024-02-15T01:53:54;10.50;;;6.22;;
20731;SDS011;10527;52.124;5.196;2024-02-15T01:56:22;12.73;;;7.57;;
20731;SDS011;10527;52.124;5.196;2024-02-15T01:58:51;10.70;;;6.50;;
20731;SDS011;10527;52.124;5.196;2024-02-15T02:01:19;12.75;;;6.53;;
20731;SDS011;10527;52.124;5.196;2024-02-15T02:03:48;9.15;;;6.88;;
20731;SDS011;10527;52.124;5.196;2024-02-15T02:06:16;14.32;;;7.95;;
20731;SDS011;10527;52.124;5.196;2024-02-15T02:08:43;13.23;;;6.55;;
20731;SDS011;10527;52.124;5.196;2024-02-15T02:11:11;11.35;;;7.13;;
20731;SDS011;10527;52.124;5.196;2024-02-15T02:13:39;13.75;;;6.88;;
20731;SDS011;10527;52.124;5.196;2024-02-15T02:18:54;11.68;;;7.28;;
20731;SDS011;10527;52.124;5.196;2024-02-15T02:21:26;8.55;;;7.25;;
20731;SDS011;10527;52.124;5.196;2024-02-15T02:23:57;12.48;;;8.27;;
20731;SDS011;10527;52.124;5.196;2024-02-15T02:26:28;13.95;;;7.80;;
20731;SDS011;10527;52.124;5.196;2024-02-15T02:28:57;11.95;;;9.57;;
20731;SDS011;10527;52.124;5.196;2024-02-15T02:31:25;11.32;;;8.10;;
20731;SDS011;10527;52.124;5.196;2024-02-15T02:33:53;13.15;;;9.25;;
20731;SDS011;10527;52.124;5.196;2024-02-15T02:36:22;9.63;;;8.10;;
20731;SDS011;10527;52.124;5.196;2024-02-15T02:38:51;11.35;;;8.80;;
20731;SDS011;10527;52.124;5.196;2024-02-15T02:41:19;13.13;;;8.75;;
20731;SDS011;10527;52.124;5.196;2024-02-15T02:43:46;11.93;;;7.90;;
20731;SDS011;10527;52.124;5.196;2024-02-15T02:46:13;9.13;;;7.18;;
20731;SDS011;10527;52.124;5.196;2024-02-15T02:48:41;14.95;;;7.93;;
20731;SDS011;10527;52.124;5.196;2024-02-15T02:51:09;13.13;;;7.30;;
20731;SDS011;10527;52.124;5.196;2024-02-15T02:53:37;10.25;;;7.28;;
20731;SDS011;10527;52.124;5.196;2024-02-15T02:56:05;13.02;;;7.18;;
20731;SDS011;10527;52.124;5.196;2024-02-15T02:58:35;9.57;;;6.90;;
20731;SDS011;10527;52.124;5.196;2024-02-15T03:01:02;8.68;;;7.68;;
20731;SDS011;10527;52.124;5.196;2024-02-15T03:03:30;8.10;;;6.57;;
20731;SDS011;10527;52.124;5.196;2024-02-15T03:05:58;9.85;;;6.38;;
20731;SDS011;10527;52.124;5.196;2024-02-15T03:08:25;8.45;;;6.07;;
20731;SDS011;10527;52.124;5.196;2024-02-15T03:10:54;11.38;;;6.07;;
20731;SDS011;10527;52.124;5.196;2024-02-15T03:13:21;9.40;;;6.50;;
20731;SDS011;10527;52.124;5.196;2024-02-15T03:15:49;13.93;;;6.57;;
20731;SDS011;10527;52.124;5.196;2024-02-15T03:18:17;8.88;;;5.72;;
20731;SDS011;10527;52.124;5.196;2024-02-15T03:20:45;10.10;;;6.22;;
20731;SDS011;10527;52.124;5.196;2024-02-15T03:23:12;11.38;;;5.90;;
20731;SDS011;10527;52.124;5.196;2024-02-15T03:25:40;8.73;;;5.70;;
20731;SDS011;10527;52.124;5.196;2024-02-15T03:28:07;7.18;;;5.40;;
20731;SDS011;10527;52.124;5.196;2024-02-15T03:30:34;7.97;;;5.20;;
20731;SDS011;10527;52.124;5.196;2024-02-15T03:33:02;8.93;;;4.97;;
20731;SDS011;10527;52.124;5.196;2024-02-15T03:35:33;15.07;;;5.72;;
20731;SDS011;10527;52.124;5.196;2024-02-15T03:38:01;7.25;;;4.40;;
20731;SDS011;10527;52.124;5.196;2024-02-15T03:40:28;9.80;;;5.40;;
20731;SDS011;10527;52.124;5.196;2024-02-15T03:42:57;6.60;;;4.72;;
20731;SDS011;10527;52.124;5.196;2024-02-15T03:45:25;8.93;;;4.60;;
20731;SDS011;10527;52.124;5.196;2024-02-15T03:47:53;6.20;;;4.25;;
20731;SDS011;10527;52.124;5.196;2024-02-15T03:50:22;10.45;;;5.25;;
20731;SDS011;10527;52.124;5.196;2024-02-15T03:52:50;8.88;;;4.78;;
20731;SDS011;10527;52.124;5.196;2024-02-15T03:55:19;8.70;;;4.60;;
20731;SDS011;10527;52.124;5.196;2024-02-15T03:57:49;6.90;;;4.80;;
20731;SDS011;10527;52.124;5.196;2024-02-15T04:00:16;9.07;;;4.78;;
20731;SDS011;10527;52.124;5.196;2024-02-15T04:02:48;10.73;;;4.25;;
20731;SDS011;10527;52.124;5.196;2024-02-15T04:05:16;9.35;;;4.60;;
20731;SDS011;10527;52.124;5.196;2024-02-15T04:07:48;6.85;;;4.28;;
20731;SDS011;10527;52.124;5.196;2024-02-15T04:10:16;8.45;;;4.10;;
20731;SDS011;10527;52.124;5.196;2024-02-15T04:12:44;9.73;;;4.70;;
20731;SDS011;10527;52.124;5.196;2024-02-15T04:15:12;8.63;;;4.30;;
20731;SDS011;10527;52.124;5.196;2024-02-15T04:17:44;5.47;;;3.95;;
20731;SDS011;10527;52.124;5.196;2024-02-15T04:20:14;8.18;;;4.47;;
20731;SDS011;10527;52.124;5.196;2024-02-15T04:22:44;7.25;;;4.18;;
20731;SDS011;10527;52.124;5.196;2024-02-15T04:25:13;11.65;;;5.15;;
20731;SDS011;10527;52.124;5.196;2024-02-15T04:27:44;8.85;;;5.10;;
20731;SDS011;10527;52.124;5.196;2024-02-15T04:30:16;10.45;;;5.60;;
20731;SDS011;10527;52.124;5.196;2024-02-15T04:32:44;9.45;;;3.97;;
20731;SDS011;10527;52.124;5.196;2024-02-15T04:35:13;8.68;;;4.35;;
20731;SDS011;10527;52.124;5.196;2024-02-15T04:37:41;9.02;;;5.05;;
20731;SDS011;10527;52.124;5.196;2024-02-15T04:40:09;9.07;;;4.20;;
20731;SDS011;10527;52.124;5.196;2024-02-15T04:42:38;11.35;;;5.30;;
20731;SDS011;10527;52.124;5.196;2024-02-15T04:45:07;8.52;;;4.65;;
20731;SDS011;10527;52.124;5.196;2024-02-15T04:47:37;8.80;;;4.78;;
20731;SDS011;10527;52.124;5.196;2024-02-15T04:50:07;10.85;;;4.80;;
20731;SDS011;10527;52.124;5.196;2024-02-15T04:52:36;8.60;;;5.18;;
20731;SDS011;10527;52.124;5.196;2024-02-15T04:55:04;10.68;;;5.05;;
20731;SDS011;10527;52.124;5.196;2024-02-15T04:57:32;7.72;;;5.00;;
20731;SDS011;10527;52.124;5.196;2024-02-15T05:00:03;11.35;;;6.15;;
20731;SDS011;10527;52.124;5.196;2024-02-15T05:02:40;11.27;;;5.18;;
20731;SDS011;10527;52.124;5.196;2024-02-15T05:05:08;7.15;;;5.18;;
20731;SDS011;10527;52.124;5.196;2024-02-15T05:07:36;8.70;;;5.15;;
20731;SDS011;10527;52.124;5.196;2024-02-15T05:10:06;10.90;;;5.63;;
20731;SDS011;10527;52.124;5.196;2024-02-15T05:12:37;13.27;;;5.50;;
20731;SDS011;10527;52.124;5.196;2024-02-15T05:15:06;11.18;;;5.88;;
20731;SDS011;10527;52.124;5.196;2024-02-15T05:17:39;8.68;;;5.30;;
20731;SDS011;10527;52.124;5.196;2024-02-15T05:20:08;7.88;;;5.05;;
20731;SDS011;10527;52.124;5.196;2024-02-15T05:22:40;8.98;;;5.10;;
20731;SDS011;10527;52.124;5.196;2024-02-15T05:25:16;6.22;;;4.93;;
20731;SDS011;10527;52.124;5.196;2024-02-15T05:27:51;9.70;;;5.38;;
20731;SDS011;10527;52.124;5.196;2024-02-15T05:30:21;9.18;;;5.30;;
20731;SDS011;10527;52.124;5.196;2024-02-15T05:32:49;8.05;;;4.90;;
20731;SDS011;10527;52.124;5.196;2024-02-15T05:35:19;7.93;;;5.65;;
20731;SDS011;10527;52.124;5.196;2024-02-15T05:37:47;8.52;;;5.80;;
20731;SDS011;10527;52.124;5.196;2024-02-15T05:40:14;9.32;;;5.93;;
20731;SDS011;10527;52.124;5.196;2024-02-15T05:42:42;8.98;;;5.90;;
20731;SDS011;10527;52.124;5.196;2024-02-15T05:45:31;10.25;;;5.93;;
20731;SDS011;10527;52.124;5.196;2024-02-15T05:48:00;10.63;;;5.82;;
20731;SDS011;10527;52.124;5.196;2024-02-15T05:50:30;8.77;;;5.55;;
20731;SDS011;10527;52.124;5.196;2024-02-15T05:52:58;10.68;;;6.32;;
20731;SDS011;10527;52.124;5.196;2024-02-15T05:55:28;11.93;;;5.90;;
20731;SDS011;10527;52.124;5.196;2024-02-15T05:57:57;13.07;;;7.15;;
20731;SDS011;10527;52.124;5.196;2024-02-15T06:00:25;10.80;;;5.90;;
20731;SDS011;10527;52.124;5.196;2024-02-15T06:02:52;10.88;;;6.22;;
20731;SDS011;10527;52.124;5.196;2024-02-15T06:05:21;8.60;;;6.15;;
20731;SDS011;10527;52.124;5.196;2024-02-15T06:07:50;10.02;;;5.97;;
20731;SDS011;10527;52.124;5.196;2024-02-15T06:10:18;9.63;;;5.82;;
20731;SDS011;10527;52.124;5.196;2024-02-15T06:12:46;8.57;;;5.75;;
20731;SDS011;10527;52.124;5.196;2024-02-15T06:15:13;8.95;;;5.50;;
20731;SDS011;10527;52.124;5.196;2024-02-15T06:17:43;9.10;;;5.53;;
20731;SDS011;10527;52.124;5.196;2024-02-15T06:20:16;11.20;;;5.70;;
20731;SDS011;10527;52.124;5.196;2024-02-15T06:22:47;8.02;;;6.45;;
20731;SDS011;10527;52.124;5.196;2024-02-15T06:25:15;7.85;;;5.20;;
20731;SDS011;10527;52.124;5.196;2024-02-15T06:27:48;8.70;;;6.05;;
20731;SDS011;10527;52.124;5.196;2024-02-15T06:30:17;8.75;;;7.03;;
20731;SDS011;10527;52.124;5.196;2024-02-15T06:33:04;8.40;;;6.05;;
20731;SDS011;10527;52.124;5.196;2024-02-15T06:35:51;7.63;;;6.43;;
20731;SDS011;10527;52.124;5.196;2024-02-15T06:38:37;8.30;;;6.55;;
20731;SDS011;10527;52.124;5.196;2024-02-15T06:41:23;9.32;;;6.82;;
20731;SDS011;10527;52.124;5.196;2024-02-15T06:43:52;9.55;;;7.00;;
20731;SDS011;10527;52.124;5.196;2024-02-15T06:46:20;7.25;;;6.20;;
20731;SDS011;10527;52.124;5.196;2024-02-15T06:48:47;8.60;;;6.70;;
20731;SDS011;10527;52.124;5.196;2024-02-15T06:51:15;8.60;;;6.03;;
20731;SDS011;10527;52.124;5.196;2024-02-15T06:53:43;6.25;;;5.63;;
20731;SDS011;10527;52.124;5.196;2024-02-15T06:56:11;6.68;;;5.88;;
20731;SDS011;10527;52.124;5.196;2024-02-15T06:58:40;7.35;;;5.63;;
20731;SDS011;10527;52.124;5.196;2024-02-15T07:01:08;6.15;;;5.18;;
20731;SDS011;10527;52.124;5.196;2024-02-15T07:03:36;6.30;;;5.45;;
20731;SDS011;10527;52.124;5.196;2024-02-15T07:06:04;7.72;;;5.57;;
20731;SDS011;10527;52.124;5.196;2024-02-15T07:08:32;7.38;;;5.20;;
20731;SDS011;10527;52.124;5.196;2024-02-15T07:11:00;7.68;;;5.72;;
20731;SDS011;10527;52.124;5.196;2024-02-15T07:13:33;7.50;;;5.13;;
20731;SDS011;10527;52.124;5.196;2024-02-15T07:16:00;8.38;;;5.20;;
20731;SDS011;10527;52.124;5.196;2024-02-15T07:18:27;5.60;;;4.75;;
20731;SDS011;10527;52.124;5.196;2024-02-15T07:20:55;8.88;;;4.70;;
20731;SDS011;10527;52.124;5.196;2024-02-15T07:23:27;5.22;;;4.60;;
20731;SDS011;10527;52.124;5.196;2024-02-15T07:25:55;5.65;;;4.13;;
20731;SDS011;10527;52.124;5.196;2024-02-15T07:28:23;5.28;;;3.90;;
20731;SDS011;10527;52.124;5.196;2024-02-15T07:30:52;5.47;;;4.13;;
20731;SDS011;10527;52.124;5.196;2024-02-15T07:33:21;7.20;;;4.28;;
20731;SDS011;10527;52.124;5.196;2024-02-15T07:35:50;5.03;;;3.38;;
20731;SDS011;10527;52.124;5.196;2024-02-15T07:38:18;4.18;;;3.60;;
20731;SDS011;10527;52.124;5.196;2024-02-15T07:40:46;4.25;;;2.78;;
20731;SDS011;10527;52.124;5.196;2024-02-15T07:43:13;3.40;;;3.08;;
20731;SDS011;10527;52.124;5.196;2024-02-15T07:45:41;5.53;;;2.85;;
20731;SDS011;10527;52.124;5.196;2024-02-15T07:48:09;3.75;;;2.80;;
20731;SDS011;10527;52.124;5.196;2024-02-15T07:50:37;5.40;;;2.97;;
20731;SDS011;10527;52.124;5.196;2024-02-15T07:53:06;5.45;;;3.58;;
20731;SDS011;10527;52.124;5.196;2024-02-15T07:55:34;5.05;;;3.50;;
20731;SDS011;10527;52.124;5.196;2024-02-15T07:58:03;6.28;;;2.95;;
20731;SDS011;10527;52.124;5.196;2024-02-15T08:00:31;4.45;;;2.55;;
20731;SDS011;10527;52.124;5.196;2024-02-15T08:02:58;3.55;;;2.75;;
20731;SDS011;10527;52.124;5.196;2024-02-15T08:05:27;4.30;;;2.90;;
20731;SDS011;10527;52.124;5.196;2024-02-15T08:07:54;2.95;;;2.63;;
20731;SDS011;10527;52.124;5.196;2024-02-15T08:10:24;2.50;;;2.20;;
20731;SDS011;10527;52.124;5.196;2024-02-15T08:12:54;3.25;;;2.60;;
20731;SDS011;10527;52.124;5.196;2024-02-15T08:15:24;3.03;;;2.55;;
20731;SDS011;10527;52.124;5.196;2024-02-15T08:17:54;4.07;;;2.95;;
20731;SDS011;10527;52.124;5.196;2024-02-15T08:20:22;5.07;;;2.50;;
20731;SDS011;10527;52.124;5.196;2024-02-15T08:22:50;3.85;;;2.92;;
20731;SDS011;10527;52.124;5.196;2024-02-15T08:25:17;5.15;;;2.55;;
20731;SDS011;10527;52.124;5.196;2024-02-15T08:27:48;3.78;;;2.70;;
20731;SDS011;10527;52.124;5.196;2024-02-15T08:30:17;3.20;;;2.35;;
20731;SDS011;10527;52.124;5.196;2024-02-15T08:32:50;3.22;;;2.15;;
20731;SDS011;10527;52.124;5.196;2024-02-15T08:35:21;2.83;;;2.47;;
20731;SDS011;10527;52.124;5.196;2024-02-15T08:37:49;3.63;;;2.63;;
20731;SDS011;10527;52.124;5.196;2024-02-15T08:40:19;2.58;;;1.98;;
20731;SDS011;10527;52.124;5.196;2024-02-15T08:42:52;2.80;;;2.28;;
20731;SDS011;10527;52.124;5.196;2024-02-15T08:45:19;3.15;;;2.40;;
20731;SDS011;10527;52.124;5.196;2024-02-15T08:47:47;3.28;;;2.13;;
20731;SDS011;10527;52.124;5.196;2024-02-15T08:50:19;2.10;;;1.90;;
20731;SDS011;10527;52.124;5.196;2024-02-15T08:52:49;4.43;;;3.15;;
20731;SDS011;10527;52.124;5.196;2024-02-15T08:55:17;4.45;;;2.47;;
20731;SDS011;10527;52.124;5.196;2024-02-15T08:57:46;2.60;;;1.95;;
20731;SDS011;10527;52.124;5.196;2024-02-15T09:00:14;3.40;;;1.75;;
20731;SDS011;10527;52.124;5.196;2024-02-15T09:02:44;2.10;;;1.63;;
20731;SDS011;10527;52.124;5.196;2024-02-15T09:05:12;3.20;;;1.85;;
20731;SDS011;10527;52.124;5.196;2024-02-15T09:07:45;3.30;;;2.13;;
20731;SDS011;10527;52.124;5.196;2024-02-15T09:10:17;2.83;;;1.90;;
20731;SDS011;10527;52.124;5.196;2024-02-15T09:12:49;4.07;;;2.70;;
20731;SDS011;10527;52.124;5.196;2024-02-15T09:15:17;3.70;;;2.10;;
20731;SDS011;10527;52.124;5.196;2024-02-15T09:17:45;3.55;;;2.15;;
20731;SDS011;10527;52.124;5.196;2024-02-15T09:20:17;3.08;;;2.13;;
20731;SDS011;10527;52.124;5.196;2024-02-15T09:22:49;2.78;;;2.00;;
20731;SDS011;10527;52.124;5.196;2024-02-15T09:25:18;4.35;;;2.88;;
20731;SDS011;10527;52.124;5.196;2024-02-15T09:27:46;5.00;;;2.45;;
20731;SDS011;10527;52.124;5.196;2024-02-15T09:30:14;4.93;;;2.67;;
20731;SDS011;10527;52.124;5.196;2024-02-15T09:32:42;3.13;;;2.63;;
20731;SDS011;10527;52.124;5.196;2024-02-15T09:35:12;5.03;;;2.90;;
20731;SDS011;10527;52.124;5.196;2024-02-15T09:37:47;3.75;;;2.53;;
20731;SDS011;10527;52.124;5.196;2024-02-15T09:40:16;2.95;;;2.13;;
20731;SDS011;10527;52.124;5.196;2024-02-15T09:42:46;3.85;;;2.60;;
20731;SDS011;10527;52.124;5.196;2024-02-15T09:45:14;5.68;;;2.63;;
20731;SDS011;10527;52.124;5.196;2024-02-15T09:47:44;4.60;;;2.20;;
20731;SDS011;10527;52.124;5.196;2024-02-15T09:50:13;5.75;;;2.30;;
20731;SDS011;10527;52.124;5.196;2024-02-15T09:52:45;5.90;;;2.50;;
20731;SDS011;10527;52.124;5.196;2024-02-15T09:55:18;2.28;;;2.00;;
20731;SDS011;10527;52.124;5.196;2024-02-15T09:57:46;4.97;;;2.28;;
20731;SDS011;10527;52.124;5.196;2024-02-15T10:00:14;4.80;;;2.83;;
20731;SDS011;10527;52.124;5.196;2024-02-15T10:02:44;4.75;;;2.45;;
20731;SDS011;10527;52.124;5.196;2024-02-15T10:05:19;4.05;;;2.47;;
20731;SDS011;10527;52.124;5.196;2024-02-15T10:07:47;3.70;;;2.05;;
20731;SDS011;10527;52.124;5.196;2024-02-15T10:12:50;4.70;;;2.40;;
20731;SDS011;10527;52.124;5.196;2024-02-15T10:15:37;6.78;;;3.00;;
20731;SDS011;10527;52.124;5.196;2024-02-15T10:18:08;3.58;;;2.10;;
20731;SDS011;10527;52.124;5.196;2024-02-15T10:20:40;5.63;;;2.50;;
20731;SDS011;10527;52.124;5.196;2024-02-15T10:23:12;5.35;;;2.13;;
20731;SDS011;10527;52.124;5.196;2024-02-15T10:25:44;4.65;;;2.20;;
20731;SDS011;10527;52.124;5.196;2024-02-15T10:28:14;5.65;;;2.60;;
20731;SDS011;10527;52.124;5.196;2024-02-15T10:30:46;7.05;;;2.70;;
20731;SDS011;10527;52.124;5.196;2024-02-15T10:33:20;6.25;;;2.60;;
20731;SDS011;10527;52.124;5.196;2024-02-15T10:36:09;6.10;;;2.95;;
20731;SDS011;10527;52.124;5.196;2024-02-15T10:38:38;7.57;;;2.50;;
20731;SDS011;10527;52.124;5.196;2024-02-15T10:41:06;5.55;;;2.20;;
20731;SDS011;10527;52.124;5.196;2024-02-15T10:43:38;6.13;;;2.90;;
20731;SDS011;10527;52.124;5.196;2024-02-15T10:46:12;4.68;;;2.78;;
20731;SDS011;10527;52.124;5.196;2024-02-15T10:48:41;6.38;;;3.08;;
20731;SDS011;10527;52.124;5.196;2024-02-15T10:51:10;5.05;;;2.95;;
20731;SDS011;10527;52.124;5.196;2024-02-15T10:53:45;6.65;;;3.75;;
20731;SDS011;10527;52.124;5.196;2024-02-15T10:56:24;6.43;;;2.80;;
20731;SDS011;10527;52.124;5.196;2024-02-15T10:59:10;5.95;;;2.70;;
20731;SDS011;10527;52.124;5.196;2024-02-15T11:01:45;9.82;;;3.92;;
20731;SDS011;10527;52.124;5.196;2024-02-15T11:04:14;5.65;;;3.40;;
20731;SDS011;10527;52.124;5.196;2024-02-15T11:06:44;10.10;;;3.00;;
20731;SDS011;10527;52.124;5.196;2024-02-15T11:09:12;7.38;;;2.92;;
20731;SDS011;10527;52.124;5.196;2024-02-15T11:11:41;6.43;;;2.88;;
20731;SDS011;10527;52.124;5.196;2024-02-15T11:14:28;4.57;;;2.88;;
20731;SDS011;10527;52.124;5.196;2024-02-15T11:17:00;8.02;;;3.03;;
20731;SDS011;10527;52.124;5.196;2024-02-15T11:22:10;6.38;;;2.97;;
20731;SDS011;10527;52.124;5.196;2024-02-15T11:24:47;7.35;;;3.58;;
20731;SDS011;10527;52.124;5.196;2024-02-15T11:27:26;8.35;;;3.97;;
20731;SDS011;10527;52.124;5.196;2024-02-15T11:29:55;6.80;;;3.92;;
20731;SDS011;10527;52.124;5.196;2024-02-15T11:32:45;6.43;;;3.90;;
20731;SDS011;10527;52.124;5.196;2024-02-15T11:35:17;7.43;;;3.78;;
20731;SDS011;10527;52.124;5.196;2024-02-15T11:37:56;10.27;;;4.93;;
20731;SDS011;10527;52.124;5.196;2024-02-15T11:40:27;9.13;;;4.03;;
20731;SDS011;10527;52.124;5.196;2024-02-15T11:42:56;7.38;;;4.10;;
20731;SDS011;10527;52.124;5.196;2024-02-15T11:45:27;10.60;;;4.32;;
20731;SDS011;10527;52.124;5.196;2024-02-15T11:48:09;10.43;;;4.78;;
20731;SDS011;10527;52.124;5.196;2024-02-15T11:50:39;5.97;;;3.97;;
20731;SDS011;10527;52.124;5.196;2024-02-15T11:53:07;8.98;;;4.80;;
20731;SDS011;10527;52.124;5.196;2024-02-15T11:55:37;7.32;;;4.47;;
20731;SDS011;10527;52.124;5.196;2024-02-15T11:58:07;5.25;;;3.95;;
20731;SDS011;10527;52.124;5.196;2024-02-15T12:00:35;8.05;;;4.70;;
20731;SDS011;10527;52.124;5.196;2024-02-15T12:03:22;5.95;;;4.22;;
20731;SDS011;10527;52.124;5.196;2024-02-15T12:06:25;5.82;;;4.00;;
20731;SDS011;10527;52.124;5.196;2024-02-15T12:09:17;6.43;;;4.35;;
20731;SDS011;10527;52.124;5.196;2024-02-15T12:12:05;5.15;;;4.50;;
20731;SDS011;10527;52.124;5.196;2024-02-15T12:14:58;10.25;;;4.68;;
20731;SDS011;10527;52.124;5.196;2024-02-15T12:17:44;7.22;;;4.10;;
20731;SDS011;10527;52.124;5.196;2024-02-15T12:20:30;8.00;;;3.60;;
20731;SDS011;10527;52.124;5.196;2024-02-15T12:22:58;7.82;;;4.20;;
20731;SDS011;10527;52.124;5.196;2024-02-15T12:25:29;4.65;;;3.55;;
20731;SDS011;10527;52.124;5.196;2024-02-15T12:28:00;6.28;;;4.47;;
20731;SDS011;10527;52.124;5.196;2024-02-15T12:30:33;6.03;;;4.30;;
20731;SDS011;10527;52.124;5.196;2024-02-15T12:33:10;8.52;;;4.10;;
20731;SDS011;10527;52.124;5.196;2024-02-15T12:35:39;7.03;;;4.47;;
20731;SDS011;10527;52.124;5.196;2024-02-15T12:38:09;5.55;;;4.22;;
20731;SDS011;10527;52.124;5.196;2024-02-15T12:40:44;4.75;;;3.90;;
20731;SDS011;10527;52.124;5.196;2024-02-15T12:43:14;4.75;;;3.70;;
20731;SDS011;10527;52.124;5.196;2024-02-15T12:45:43;4.97;;;3.85;;
20731;SDS011;10527;52.124;5.196;2024-02-15T12:48:10;6.75;;;3.42;;
20731;SDS011;10527;52.124;5.196;2024-02-15T12:50:38;4.50;;;3.05;;
20731;SDS011;10527;52.124;5.196;2024-02-15T12:53:06;6.53;;;3.17;;
20731;SDS011;10527;52.124;5.196;2024-02-15T12:55:35;5.50;;;2.97;;
20731;SDS011;10527;52.124;5.196;2024-02-15T12:58:05;5.47;;;2.85;;
20731;SDS011;10527;52.124;5.196;2024-02-15T13:00:42;4.82;;;2.25;;
20731;SDS011;10527;52.124;5.196;2024-02-15T13:03:11;4.15;;;2.42;;
20731;SDS011;10527;52.124;5.196;2024-02-15T13:05:42;3.05;;;1.77;;
20731;SDS011;10527;52.124;5.196;2024-02-15T13:08:10;2.30;;;1.70;;
20731;SDS011;10527;52.124;5.196;2024-02-15T13:10:41;5.20;;;1.73;;
20731;SDS011;10527;52.124;5.196;2024-02-15T13:13:09;4.80;;;2.03;;
20731;SDS011;10527;52.124;5.196;2024-02-15T13:15:37;4.95;;;2.50;;
20731;SDS011;10527;52.124;5.196;2024-02-15T13:18:05;4.60;;;1.80;;
20731;SDS011;10527;52.124;5.196;2024-02-15T13:20:37;3.67;;;1.73;;
20731;SDS011;10527;52.124;5.196;2024-02-15T13:23:09;3.55;;;1.80;;
20731;SDS011;10527;52.124;5.196;2024-02-15T13:25:49;3.20;;;2.17;;
20731;SDS011;10527;52.124;5.196;2024-02-15T13:28:18;4.53;;;2.53;;
20731;SDS011;10527;52.124;5.196;2024-02-15T13:30:46;5.25;;;2.05;;
20731;SDS011;10527;52.124;5.196;2024-02-15T13:33:16;4.68;;;2.00;;
20731;SDS011;10527;52.124;5.196;2024-02-15T13:35:44;6.55;;;2.28;;
20731;SDS011;10527;52.124;5.196;2024-02-15T13:38:12;4.22;;;1.67;;
20731;SDS011;10527;52.124;5.196;2024-02-15T13:40:42;4.25;;;2.38;;
20731;SDS011;10527;52.124;5.196;2024-02-15T13:43:11;6.78;;;1.83;;
20731;SDS011;10527;52.124;5.196;2024-02-15T13:45:39;3.83;;;1.70;;
20731;SDS011;10527;52.124;5.196;2024-02-15T13:48:08;4.22;;;1.90;;
20731;SDS011;10527;52.124;5.196;2024-02-15T13:50:36;3.70;;;1.58;;
20731;SDS011;10527;52.124;5.196;2024-02-15T13:53:06;5.50;;;2.05;;
20731;SDS011;10527;52.124;5.196;2024-02-15T13:55:36;4.60;;;1.60;;
20731;SDS011;10527;52.124;5.196;2024-02-15T13:58:04;2.60;;;1.52;;
20731;SDS011;10527;52.124;5.196;2024-02-15T14:00:35;4.60;;;2.05;;
20731;SDS011;10527;52.124;5.196;2024-02-15T14:03:04;3.55;;;1.42;;
20731;SDS011;10527;52.124;5.196;2024-02-15T14:05:33;3.50;;;1.20;;
20731;SDS011;10527;52.124;5.196;2024-02-15T14:08:01;3.63;;;1.45;;
20731;SDS011;10527;52.124;5.196;2024-02-15T14:10:31;3.70;;;1.58;;
20731;SDS011;10527;52.124;5.196;2024-02-15T14:13:02;5.07;;;1.63;;
20731;SDS011;10527;52.124;5.196;2024-02-15T14:15:38;3.30;;;1.25;;
20731;SDS011;10527;52.124;5.196;2024-02-15T14:18:11;4.68;;;1.40;;
20731;SDS011;10527;52.124;5.196;2024-02-15T14:20:46;4.40;;;2.15;;
20731;SDS011;10527;52.124;5.196;2024-02-15T14:23:14;5.57;;;1.55;;
20731;SDS011;10527;52.124;5.196;2024-02-15T14:25:43;4.30;;;1.33;;
20731;SDS011;10527;52.124;5.196;2024-02-15T14:28:16;3.63;;;1.40;;
20731;SDS011;10527;52.124;5.196;2024-02-15T14:30:46;7.95;;;1.50;;
20731;SDS011;10527;52.124;5.196;2024-02-15T14:33:33;4.45;;;1.33;;
20731;SDS011;10527;52.124;5.196;2024-02-15T14:36:01;3.97;;;1.38;;
20731;SDS011;10527;52.124;5.196;2024-02-15T14:38:30;3.53;;;1.48;;
20731;SDS011;10527;52.124;5.196;2024-02-15T14:41:00;2.22;;;1.27;;
20731;SDS011;10527;52.124;5.196;2024-02-15T14:43:34;5.00;;;1.80;;
20731;SDS011;10527;52.124;5.196;2024-02-15T14:46:02;5.50;;;1.65;;
20731;SDS011;10527;52.124;5.196;2024-02-15T14:48:32;2.15;;;1.35;;
20731;SDS011;10527;52.124;5.196;2024-02-15T14:51:00;2.13;;;1.20;;
20731;SDS011;10527;52.124;5.196;2024-02-15T14:53:29;2.75;;;1.40;;
20731;SDS011;10527;52.124;5.196;2024-02-15T14:55:57;3.30;;;1.58;;
20731;SDS011;10527;52.124;5.196;2024-02-15T14:58:25;3.10;;;1.30;;
20731;SDS011;10527;52.124;5.196;2024-02-15T15:00:53;4.03;;;1.52;;
20731;SDS011;10527;52.124;5.196;2024-02-15T15:03:29;4.45;;;1.40;;
20731;SDS011;10527;52.124;5.196;2024-02-15T15:06:06;2.67;;;1.75;;
20731;SDS011;10527;52.124;5.196;2024-02-15T15:08:54;3.88;;;1.20;;
20731;SDS011;10527;52.124;5.196;2024-02-15T15:11:54;3.08;;;1.40;;